Time;durP1;ratioP1;P1;durP2;ratioP2;P2;SDS_P1;SDS_P2;PMS_P1;PMS_P2;Temp;Humidity;BMP_temperature;BMP_pressure;BME280_temperature;BME280_humidity;BME280_pressure;Samples;Min_cycle;Max_cycle;Signal;HPM_P1;HPM_P2
2022/05/20 00:01:48;;;;;;;32.05;24.15;;;;;;;;;;5093937;28;20024;-67
2022/05/20 00:04:14;;;;;;;28.48;23.60;;;;;;;;;;5091697;28;20024;-67
2022/05/20 00:06:40;;;;;;;31.38;25.52;;;;;;;;;;5089951;28;20384;-68
2022/05/20 00:09:06;;;;;;;35.60;26.42;;;;;;;;;;5074214;28;20035;-66
2022/05/20 00:11:33;;;;;;;32.30;25.77;;;;;;;;;;5095893;28;20023;-68
2022/05/20 00:13:59;;;;;;;34.50;26.13;;;;;;;;;;5078950;28;20028;-69
2022/05/20 00:16:25;;;;;;;34.17;27.25;;;;;;;;;;5083971;28;20394;-66
2022/05/20 00:18:51;;;;;;;39.28;27.95;;;;;;;;;;5082311;28;20038;-66
2022/05/20 00:21:17;;;;;;;38.42;28.45;;;;;;;;;;5074872;28;20032;-68
2022/05/20 00:23:43;;;;;;;35.40;27.48;;;;;;;;;;5084208;28;20094;-68
2022/05/20 00:26:09;;;;;;;34.20;25.80;;;;;;;;;;5086582;28;20024;-68
2022/05/20 00:28:34;;;;;;;31.98;25.00;;;;;;;;;;5092741;28;20055;-67
2022/05/20 00:31:05;;;;;;;35.38;26.70;;;;;;;;;;5086075;28;20409;-67
2022/05/20 00:33:32;;;;;;;33.58;26.65;;;;;;;;;;5084732;28;20085;-68
2022/05/20 00:35:58;;;;;;;34.05;26.67;;;;;;;;;;5089710;28;20023;-67
2022/05/20 00:38:26;;;;;;;37.45;27.20;;;;;;;;;;5082281;28;20029;-66
2022/05/20 00:40:53;;;;;;;35.08;27.20;;;;;;;;;;5087594;28;20024;-68
2022/05/20 00:43:25;;;;;;;34.30;26.65;;;;;;;;;;5087049;28;20024;-65
2022/05/20 00:45:52;;;;;;;33.33;26.60;;;;;;;;;;5097656;28;20449;-67
2022/05/20 00:48:18;;;;;;;34.35;26.30;;;;;;;;;;5087826;28;20551;-68
2022/05/20 00:50:50;;;;;;;37.22;28.23;;;;;;;;;;5086850;28;20071;-66
2022/05/20 00:53:19;;;;;;;35.38;27.95;;;;;;;;;;5089442;28;20032;-67
2022/05/20 00:55:46;;;;;;;35.60;27.10;;;;;;;;;;5088168;28;20084;-65
2022/05/20 00:58:16;;;;;;;36.88;29.65;;;;;;;;;;5096900;28;20623;-64
2022/05/20 01:00:43;;;;;;;34.22;26.38;;;;;;;;;;5086132;28;20460;-67
2022/05/20 01:03:11;;;;;;;35.72;26.95;;;;;;;;;;5094402;28;20034;-68
2022/05/20 01:05:39;;;;;;;37.92;29.52;;;;;;;;;;5089889;28;20031;-68
2022/05/20 01:08:06;;;;;;;36.58;28.17;;;;;;;;;;5081471;28;20391;-67
2022/05/20 01:10:32;;;;;;;43.42;31.08;;;;;;;;;;5088401;28;20058;-68
2022/05/20 01:12:58;;;;;;;36.53;28.88;;;;;;;;;;5103553;28;20028;-67
2022/05/20 01:15:24;;;;;;;39.38;29.15;;;;;;;;;;5082641;28;20115;-68
2022/05/20 01:17:52;;;;;;;40.55;30.50;;;;;;;;;;5086628;28;20111;-67
2022/05/20 01:20:20;;;;;;;38.80;28.13;;;;;;;;;;5086823;28;20380;-67
2022/05/20 01:22:48;;;;;;;38.90;28.23;;;;;;;;;;5079945;28;20401;-68
2022/05/20 01:25:15;;;;;;;36.42;27.77;;;;;;;;;;5089494;28;20012;-68
2022/05/20 01:27:42;;;;;;;36.75;28.75;;;;;;;;;;5088178;28;20056;-68
2022/05/20 01:30:10;;;;;;;33.25;27.08;;;;;;;;;;5083605;28;20019;-67
2022/05/20 01:32:36;;;;;;;34.90;27.38;;;;;;;;;;5085955;28;20025;-67
2022/05/20 01:35:02;;;;;;;36.10;27.83;;;;;;;;;;5088248;28;20039;-67
2022/05/20 01:37:28;;;;;;;33.42;27.25;;;;;;;;;;5085835;28;20077;-67
2022/05/20 01:39:54;;;;;;;34.03;26.98;;;;;;;;;;5095918;28;20104;-68
2022/05/20 01:42:24;;;;;;;33.95;27.42;;;;;;;;;;5094784;28;20024;-67
2022/05/20 01:44:59;;;;;;;35.38;27.88;;;;;;;;;;5098602;28;20027;-68
2022/05/20 01:47:37;;;;;;;38.53;28.52;;;;;;;;;;5089111;28;20039;-68
2022/05/20 01:50:13;;;;;;;34.42;27.70;;;;;;;;;;5098585;28;20024;-68
2022/05/20 01:52:51;;;;;;;32.92;27.65;;;;;;;;;;5092650;28;20036;-68
2022/05/20 01:55:17;;;;;;;35.28;27.70;;;;;;;;;;5094243;28;20089;-68
2022/05/20 01:57:48;;;;;;;35.88;28.17;;;;;;;;;;5090893;28;20035;-67
2022/05/20 02:00:15;;;;;;;34.08;27.75;;;;;;;;;;5087264;28;20023;-67
2022/05/20 02:03:00;;;;;;;38.40;29.80;;;;;;;;;;5097952;28;20036;-68
2022/05/20 02:05:39;;;;;;;40.80;29.15;;;;;;;;;;5089121;28;20033;-65
2022/05/20 02:08:08;;;;;;;38.58;29.67;;;;;;;;;;5093730;28;20023;-67
2022/05/20 02:10:36;;;;;;;35.70;28.20;;;;;;;;;;5083843;28;20025;-65
2022/05/20 02:13:05;;;;;;;35.45;28.15;;;;;;;;;;5097091;28;20541;-67
2022/05/20 02:15:36;;;;;;;39.50;28.02;;;;;;;;;;5090270;28;20028;-68
2022/05/20 02:18:04;;;;;;;34.42;27.77;;;;;;;;;;5094643;28;20102;-64
2022/05/20 02:20:37;;;;;;;35.03;26.95;;;;;;;;;;5088277;28;20375;-67
2022/05/20 02:23:05;;;;;;;34.60;27.27;;;;;;;;;;5085306;28;20028;-66
2022/05/20 02:25:32;;;;;;;34.20;26.90;;;;;;;;;;5090589;28;20031;-67
2022/05/20 02:28:03;;;;;;;35.78;27.45;;;;;;;;;;5090109;28;20035;-67
2022/05/20 02:30:31;;;;;;;37.42;29.27;;;;;;;;;;5094803;28;20035;-67
2022/05/20 02:33:09;;;;;;;40.38;29.73;;;;;;;;;;5096036;28;20047;-67
2022/05/20 02:35:35;;;;;;;38.33;29.77;;;;;;;;;;5091432;28;20062;-66
2022/05/20 02:38:06;;;;;;;39.85;29.48;;;;;;;;;;5079489;28;20111;-67
2022/05/20 02:40:32;;;;;;;37.30;28.17;;;;;;;;;;5091763;28;20020;-67
2022/05/20 02:42:58;;;;;;;35.80;28.10;;;;;;;;;;5095194;28;20024;-67
2022/05/20 02:45:24;;;;;;;36.75;29.42;;;;;;;;;;5084731;28;20100;-67
2022/05/20 02:47:50;;;;;;;35.70;28.75;;;;;;;;;;5087988;28;20049;-67
2022/05/20 02:50:16;;;;;;;37.60;27.80;;;;;;;;;;5096876;28;20164;-66
2022/05/20 02:52:42;;;;;;;37.95;27.77;;;;;;;;;;5095158;28;20386;-65
2022/05/20 02:55:08;;;;;;;35.80;28.88;;;;;;;;;;5094343;28;20034;-67
2022/05/20 02:57:35;;;;;;;37.08;28.10;;;;;;;;;;5081870;28;20021;-67
2022/05/20 03:05:30;;;;;;;36.65;27.98;;;;;;;;;;5076558;28;20085;-67
2022/05/20 03:07:56;;;;;;;36.80;28.50;;;;;;;;;;5091900;28;20024;-64
2022/05/20 03:10:22;;;;;;;36.38;29.27;;;;;;;;;;5086510;28;20032;-66
2022/05/20 03:12:48;;;;;;;38.70;29.52;;;;;;;;;;5095119;28;20026;-67
2022/05/20 03:15:16;;;;;;;35.88;28.08;;;;;;;;;;5087280;28;20024;-66
2022/05/20 03:17:43;;;;;;;38.45;26.95;;;;;;;;;;5098710;28;20019;-67
2022/05/20 03:20:09;;;;;;;30.67;25.05;;;;;;;;;;5082032;28;20024;-67
2022/05/20 03:22:36;;;;;;;30.90;25.02;;;;;;;;;;5099534;28;20547;-67
2022/05/20 03:25:04;;;;;;;32.20;26.25;;;;;;;;;;5080409;28;20392;-67
2022/05/20 03:27:30;;;;;;;34.72;27.25;;;;;;;;;;5085242;28;20475;-67
2022/05/20 03:29:56;;;;;;;35.38;26.92;;;;;;;;;;5092243;28;20024;-66
2022/05/20 03:32:22;;;;;;;37.35;27.80;;;;;;;;;;5074095;28;20484;-66
2022/05/20 03:34:48;;;;;;;40.25;29.13;;;;;;;;;;5087924;28;20028;-65
2022/05/20 03:37:14;;;;;;;36.22;27.75;;;;;;;;;;5091468;28;20438;-65
2022/05/20 03:39:40;;;;;;;40.85;29.00;;;;;;;;;;5087510;28;20026;-66
2022/05/20 03:42:06;;;;;;;33.45;27.90;;;;;;;;;;5096269;28;20403;-66
2022/05/20 03:44:32;;;;;;;36.42;29.15;;;;;;;;;;5093885;28;20024;-67
2022/05/20 03:46:58;;;;;;;35.05;29.35;;;;;;;;;;5080416;28;20039;-66
2022/05/20 03:49:26;;;;;;;37.28;29.42;;;;;;;;;;5088266;28;20039;-65
2022/05/20 03:51:52;;;;;;;38.58;28.98;;;;;;;;;;5091354;28;20028;-66
2022/05/20 03:54:19;;;;;;;30.92;25.15;;;;;;;;;;5090835;28;20028;-66
2022/05/20 03:56:45;;;;;;;32.10;24.45;;;;;;;;;;5079170;28;20032;-66
2022/05/20 03:59:12;;;;;;;30.58;23.38;;;;;;;;;;5087951;28;20058;-66
2022/05/20 04:01:57;;;;;;;32.50;27.05;;;;;;;;;;5094350;28;20024;-66
2022/05/20 04:04:27;;;;;;;33.65;27.23;;;;;;;;;;5095694;28;20076;-65
2022/05/20 04:06:53;;;;;;;38.30;28.92;;;;;;;;;;5070770;28;20063;-65
2022/05/20 04:09:20;;;;;;;35.85;28.48;;;;;;;;;;5091888;28;20043;-66
2022/05/20 04:11:46;;;;;;;37.55;29.45;;;;;;;;;;5090556;28;20031;-66
2022/05/20 04:14:12;;;;;;;38.05;28.67;;;;;;;;;;5095567;28;20023;-66
2022/05/20 04:16:38;;;;;;;37.90;30.02;;;;;;;;;;5083415;28;20027;-66
2022/05/20 04:19:04;;;;;;;37.60;29.08;;;;;;;;;;5097907;28;20111;-66
2022/05/20 04:21:30;;;;;;;33.28;27.73;;;;;;;;;;5087570;28;20462;-65
2022/05/20 04:23:56;;;;;;;36.53;28.90;;;;;;;;;;5084532;28;20096;-65
2022/05/20 04:26:22;;;;;;;40.70;31.50;;;;;;;;;;5084864;28;20170;-66
2022/05/20 04:28:48;;;;;;;43.65;31.52;;;;;;;;;;5080462;28;20043;-65
2022/05/20 04:31:14;;;;;;;45.67;34.13;;;;;;;;;;5084860;28;20113;-66
2022/05/20 04:33:40;;;;;;;40.38;32.75;;;;;;;;;;5080459;28;20365;-65
2022/05/20 04:36:07;;;;;;;44.83;32.10;;;;;;;;;;5085992;28;20031;-65
2022/05/20 04:38:33;;;;;;;41.88;32.15;;;;;;;;;;5095691;28;20024;-63
2022/05/20 04:49:13;;;;;;;32.08;24.92;;;;;;;;;;5109019;28;20039;-65
2022/05/20 04:51:40;;;;;;;33.50;25.17;;;;;;;;;;5095346;28;20036;-65
2022/05/20 04:56:52;;;;;;;38.33;30.02;;;;;;;;;;5096292;28;20504;-66
2022/05/20 04:59:20;;;;;;;49.15;37.70;;;;;;;;;;5097002;28;20487;-67
2022/05/20 05:01:46;;;;;;;53.35;39.30;;;;;;;;;;5092679;28;20034;-64
2022/05/20 05:04:12;;;;;;;54.35;40.03;;;;;;;;;;5092813;28;20027;-63
2022/05/20 05:06:38;;;;;;;58.10;41.50;;;;;;;;;;5086413;28;20468;-68
2022/05/20 05:09:04;;;;;;;55.88;41.90;;;;;;;;;;5087445;28;20023;-68
2022/05/20 05:11:31;;;;;;;61.50;42.50;;;;;;;;;;5092957;28;20621;-66
2022/05/20 05:13:57;;;;;;;62.22;43.72;;;;;;;;;;5098759;28;20547;-68
2022/05/20 05:16:23;;;;;;;55.65;41.28;;;;;;;;;;5089343;28;20028;-68
2022/05/20 05:18:49;;;;;;;60.13;43.60;;;;;;;;;;5105722;28;20623;-68
2022/05/20 05:21:16;;;;;;;57.40;41.10;;;;;;;;;;5093535;28;20070;-62
2022/05/20 05:23:42;;;;;;;60.45;42.67;;;;;;;;;;5092850;28;20619;-66
2022/05/20 05:26:08;;;;;;;58.72;42.28;;;;;;;;;;5081420;28;20020;-63
2022/05/20 05:28:34;;;;;;;57.95;42.03;;;;;;;;;;5100380;28;20028;-67
2022/05/20 05:31:00;;;;;;;57.80;44.00;;;;;;;;;;5091657;28;20035;-68
2022/05/20 05:33:26;;;;;;;62.20;44.90;;;;;;;;;;5091440;28;20016;-69
2022/05/20 05:35:52;;;;;;;67.32;45.50;;;;;;;;;;5087263;28;20028;-68
2022/05/20 05:38:19;;;;;;;63.63;45.38;;;;;;;;;;5086700;28;20661;-68
2022/05/20 05:40:45;;;;;;;63.35;45.53;;;;;;;;;;5082147;28;20035;-66
2022/05/20 05:43:11;;;;;;;67.70;47.40;;;;;;;;;;5097304;28;20472;-68
2022/05/20 05:45:38;;;;;;;70.85;46.53;;;;;;;;;;5091627;28;20621;-67
2022/05/20 05:48:06;;;;;;;71.40;47.97;;;;;;;;;;5093919;28;20035;-68
2022/05/20 05:50:33;;;;;;;67.72;47.92;;;;;;;;;;5094376;28;20024;-68
2022/05/20 05:53:08;;;;;;;65.30;46.97;;;;;;;;;;5099302;28;20471;-58
2022/05/20 05:55:34;;;;;;;62.45;44.13;;;;;;;;;;5079159;28;20105;-58
2022/05/20 05:58:00;;;;;;;66.60;46.60;;;;;;;;;;5086829;28;20463;-57
2022/05/20 06:00:26;;;;;;;61.20;44.78;;;;;;;;;;5091270;28;20056;-58
2022/05/20 06:02:53;;;;;;;73.25;48.45;;;;;;;;;;5093835;28;20051;-60
2022/05/20 06:05:19;;;;;;;68.30;46.92;;;;;;;;;;5090608;28;20458;-60
2022/05/20 06:07:45;;;;;;;60.58;42.90;;;;;;;;;;5082356;28;20084;-58
2022/05/20 06:10:12;;;;;;;60.10;42.40;;;;;;;;;;5081864;28;20025;-59
2022/05/20 06:12:38;;;;;;;57.45;41.80;;;;;;;;;;5093400;28;20036;-59
2022/05/20 06:15:08;;;;;;;60.80;43.13;;;;;;;;;;5086064;28;20110;-59
2022/05/20 06:17:34;;;;;;;54.42;39.13;;;;;;;;;;5079143;28;20036;-58
2022/05/20 06:20:01;;;;;;;58.25;40.05;;;;;;;;;;5091094;28;20391;-58
2022/05/20 06:22:27;;;;;;;55.53;38.95;;;;;;;;;;5085278;28;20987;-60
2022/05/20 06:24:54;;;;;;;53.95;37.45;;;;;;;;;;5088091;28;20020;-59
2022/05/20 06:27:20;;;;;;;49.28;36.47;;;;;;;;;;5093010;28;20378;-58
2022/05/20 06:29:49;;;;;;;45.80;32.88;;;;;;;;;;5089576;28;20028;-58
2022/05/20 06:32:15;;;;;;;47.38;33.13;;;;;;;;;;5084146;28;20031;-58
2022/05/20 06:40:13;;;;;;;38.45;27.33;;;;;;;;;;5086878;28;20092;-60
2022/05/20 06:42:39;;;;;;;32.70;24.85;;;;;;;;;;5071229;28;20664;-60
2022/05/20 06:45:05;;;;;;;36.67;24.58;;;;;;;;;;5084390;28;20023;-60
2022/05/20 06:47:31;;;;;;;31.33;24.10;;;;;;;;;;5099260;28;20035;-61
2022/05/20 06:49:57;;;;;;;33.92;24.10;;;;;;;;;;5088587;28;20471;-61
2022/05/20 06:52:23;;;;;;;29.40;21.52;;;;;;;;;;5085972;28;20028;-61
2022/05/20 06:54:49;;;;;;;30.45;22.73;;;;;;;;;;5084130;28;20023;-61
2022/05/20 06:57:19;;;;;;;31.98;22.63;;;;;;;;;;5093170;28;20023;-60
2022/05/20 06:59:45;;;;;;;31.63;20.70;;;;;;;;;;5095433;28;20531;-60
2022/05/20 07:02:11;;;;;;;30.85;21.23;;;;;;;;;;5092297;28;20024;-60
2022/05/20 07:04:37;;;;;;;43.90;22.60;;;;;;;;;;5087726;28;20399;-60
2022/05/20 07:07:04;;;;;;;31.50;21.00;;;;;;;;;;5083170;28;20044;-61
2022/05/20 07:09:31;;;;;;;26.08;20.52;;;;;;;;;;5086825;28;20224;-61
2022/05/20 07:11:57;;;;;;;33.55;22.73;;;;;;;;;;5082632;28;20035;-60
2022/05/20 07:14:23;;;;;;;34.67;21.55;;;;;;;;;;5087020;28;20031;-61
2022/05/20 07:16:49;;;;;;;30.85;21.67;;;;;;;;;;5091525;27;20031;-62
2022/05/20 07:19:15;;;;;;;36.97;22.77;;;;;;;;;;5097008;28;20020;-61
2022/05/20 07:21:41;;;;;;;32.35;21.75;;;;;;;;;;5090927;28;20028;-61
2022/05/20 07:24:07;;;;;;;32.42;21.08;;;;;;;;;;5094047;28;20028;-60
2022/05/20 07:26:34;;;;;;;32.58;22.02;;;;;;;;;;5079847;28;20433;-61
2022/05/20 07:29:00;;;;;;;31.90;21.52;;;;;;;;;;5087718;28;20103;-61
2022/05/20 07:31:26;;;;;;;30.42;21.75;;;;;;;;;;5084069;28;20032;-60
2022/05/20 07:33:52;;;;;;;29.52;21.92;;;;;;;;;;5091674;28;20031;-60
2022/05/20 07:36:19;;;;;;;28.48;20.75;;;;;;;;;;5086006;28;20035;-60
2022/05/20 07:38:45;;;;;;;29.75;21.50;;;;;;;;;;5081716;28;20029;-60
2022/05/20 07:41:12;;;;;;;33.53;23.25;;;;;;;;;;5096658;28;20031;-60
2022/05/20 07:43:38;;;;;;;33.67;22.13;;;;;;;;;;5087783;28;20028;-60
2022/05/20 07:46:04;;;;;;;28.85;21.05;;;;;;;;;;5075704;28;20552;-61
2022/05/20 07:48:30;;;;;;;33.35;21.05;;;;;;;;;;5078205;28;20031;-60
2022/05/20 07:51:16;;;;;;;34.42;22.13;;;;;;;;;;5089744;28;20028;-60
2022/05/20 07:53:44;;;;;;;31.02;20.13;;;;;;;;;;5090008;28;20494;-60
2022/05/20 07:56:20;;;;;;;33.05;21.63;;;;;;;;;;5082877;28;20020;-60
2022/05/20 07:58:49;;;;;;;35.58;23.50;;;;;;;;;;5091350;28;20086;-60
2022/05/20 08:01:20;;;;;;;34.38;24.15;;;;;;;;;;5076678;28;20024;-61
2022/05/20 08:06:32;;;;;;;35.35;22.33;;;;;;;;;;5075230;28;20119;-61
2022/05/20 08:08:58;;;;;;;34.67;22.30;;;;;;;;;;5083142;28;20111;-62
2022/05/20 08:11:24;;;;;;;32.58;23.40;;;;;;;;;;5083980;28;20143;-61
2022/05/20 08:13:50;;;;;;;29.60;21.65;;;;;;;;;;5085017;28;20043;-61
2022/05/20 08:16:17;;;;;;;29.85;19.70;;;;;;;;;;5078456;28;20021;-60
2022/05/20 08:18:43;;;;;;;29.80;19.90;;;;;;;;;;5082443;28;20062;-60
2022/05/20 08:21:09;;;;;;;28.10;19.55;;;;;;;;;;5082919;28;20495;-61
2022/05/20 08:23:35;;;;;;;30.83;18.88;;;;;;;;;;5090286;28;20020;-60
2022/05/20 08:26:01;;;;;;;31.02;20.08;;;;;;;;;;5081536;28;20451;-61
2022/05/20 08:28:27;;;;;;;24.15;17.35;;;;;;;;;;5089622;28;20040;-61
2022/05/20 08:30:53;;;;;;;26.77;17.77;;;;;;;;;;5098925;28;20084;-61
2022/05/20 08:33:19;;;;;;;27.73;17.70;;;;;;;;;;5094774;28;20047;-62
2022/05/20 08:35:45;;;;;;;27.08;16.63;;;;;;;;;;5092420;28;20063;-62
2022/05/20 08:38:11;;;;;;;29.42;17.48;;;;;;;;;;5089094;28;20576;-60
2022/05/20 08:40:45;;;;;;;32.67;21.85;;;;;;;;;;5090768;28;20459;-63
2022/05/20 08:43:12;;;;;;;28.58;18.30;;;;;;;;;;5097825;28;20023;-63
2022/05/20 08:45:38;;;;;;;30.17;19.10;;;;;;;;;;5088334;28;20471;-62
2022/05/20 08:48:05;;;;;;;28.60;16.95;;;;;;;;;;5099525;28;20486;-63
2022/05/20 08:51:01;;;;;;;30.40;18.02;;;;;;;;;;5096722;28;20089;-62
2022/05/20 08:53:27;;;;;;;27.13;16.38;;;;;;;;;;5084856;28;20032;-62
2022/05/20 08:55:53;;;;;;;29.67;17.90;;;;;;;;;;5092322;28;20031;-61
2022/05/20 08:58:21;;;;;;;25.30;16.40;;;;;;;;;;5087754;28;20082;-63
2022/05/20 09:00:48;;;;;;;26.20;15.98;;;;;;;;;;5088880;28;20032;-62
2022/05/20 09:03:14;;;;;;;24.10;15.65;;;;;;;;;;5104354;28;20042;-61
2022/05/20 09:05:41;;;;;;;25.85;16.00;;;;;;;;;;5087631;28;20491;-61
2022/05/20 09:08:19;;;;;;;29.45;16.88;;;;;;;;;;5076268;28;20052;-63
2022/05/20 09:10:56;;;;;;;27.42;16.30;;;;;;;;;;5087439;28;20076;-62
2022/05/20 09:15:43;;;;;;;24.08;14.88;;;;;;;;;;5080145;28;20032;-62
2022/05/20 09:16:12;;;;;;;29.73;18.65;;;;;;;;;;5082648;28;20043;-62
2022/05/20 09:18:39;;;;;;;36.28;19.85;;;;;;;;;;5092926;28;20444;-61
2022/05/20 09:21:07;;;;;;;33.55;20.65;;;;;;;;;;5091008;28;20032;-62
2022/05/20 09:23:33;;;;;;;35.58;20.17;;;;;;;;;;5098681;28;20092;-62
2022/05/20 09:26:05;;;;;;;35.05;22.33;;;;;;;;;;5089974;28;20066;-63
2022/05/20 09:28:48;;;;;;;54.88;31.38;;;;;;;;;;5090579;28;20035;-62
2022/05/20 09:31:14;;;;;;;30.73;20.70;;;;;;;;;;5085237;28;20028;-62
2022/05/20 09:33:40;;;;;;;29.88;20.25;;;;;;;;;;5093950;28;20663;-62
2022/05/20 09:36:07;;;;;;;34.40;23.77;;;;;;;;;;5087127;28;20778;-62
2022/05/20 09:38:33;;;;;;;32.38;22.67;;;;;;;;;;5092578;28;20077;-62
2022/05/20 09:40:59;;;;;;;35.65;22.73;;;;;;;;;;5082532;28;20036;-62
2022/05/20 09:43:28;;;;;;;37.90;22.65;;;;;;;;;;5089430;28;20028;-63
2022/05/20 09:45:54;;;;;;;34.50;23.77;;;;;;;;;;5085278;28;20463;-64
2022/05/20 09:48:40;;;;;;;30.00;20.23;;;;;;;;;;5093542;28;20071;-62
2022/05/20 09:51:12;;;;;;;37.65;24.83;;;;;;;;;;5094431;28;20035;-63
2022/05/20 09:53:40;;;;;;;36.40;24.63;;;;;;;;;;5099980;28;20097;-62
2022/05/20 09:56:14;;;;;;;37.88;24.25;;;;;;;;;;5091212;28;20110;-63
2022/05/20 09:58:40;;;;;;;31.88;21.42;;;;;;;;;;5083053;28;20050;-63
2022/05/20 10:01:09;;;;;;;33.90;22.80;;;;;;;;;;5085337;28;20036;-62
2022/05/20 10:03:38;;;;;;;38.92;23.40;;;;;;;;;;5089640;28;20020;-64
2022/05/20 10:06:26;;;;;;;35.90;24.23;;;;;;;;;;5094881;28;20050;-62
2022/05/20 10:09:02;;;;;;;39.50;25.65;;;;;;;;;;5083499;28;20027;-62
2022/05/20 10:11:30;;;;;;;40.10;25.73;;;;;;;;;;5090822;28;20027;-62
2022/05/20 10:13:57;;;;;;;35.25;25.00;;;;;;;;;;5083166;28;20099;-62
2022/05/20 10:16:23;;;;;;;35.20;24.63;;;;;;;;;;5083872;28;20040;-62
2022/05/20 10:18:52;;;;;;;31.48;22.88;;;;;;;;;;5090574;28;20599;-62
2022/05/20 10:21:18;;;;;;;48.83;37.17;;;;;;;;;;5086410;28;20027;-61
2022/05/20 10:23:56;;;;;;;32.78;24.45;;;;;;;;;;5090717;28;20023;-62
2022/05/20 10:26:28;;;;;;;35.85;25.67;;;;;;;;;;5097923;28;20035;-61
2022/05/20 10:34:34;;;;;;;37.13;25.60;;;;;;;;;;5083029;28;20082;-62
2022/05/20 10:37:03;;;;;;;33.25;23.60;;;;;;;;;;5082179;28;20107;-62
2022/05/20 10:39:48;;;;;;;33.08;23.52;;;;;;;;;;5094708;28;20056;-63
2022/05/20 10:42:31;;;;;;;35.38;24.40;;;;;;;;;;5082403;28;20020;-62
2022/05/20 10:50:39;;;;;;;34.92;23.50;;;;;;;;;;5084939;28;20035;-61
2022/05/20 10:53:15;;;;;;;34.95;24.33;;;;;;;;;;5098741;28;20031;-63
2022/05/20 10:55:41;;;;;;;36.30;23.20;;;;;;;;;;5084414;28;20027;-60
2022/05/20 10:58:22;;;;;;;33.58;23.95;;;;;;;;;;5085428;28;20033;-61
2022/05/20 11:00:52;;;;;;;36.78;22.08;;;;;;;;;;5085041;28;20055;-62
2022/05/20 11:03:37;;;;;;;34.80;22.52;;;;;;;;;;5093490;28;20019;-63
2022/05/20 11:06:03;;;;;;;29.23;21.42;;;;;;;;;;5082393;28;20077;-61
2022/05/20 11:08:38;;;;;;;31.00;20.60;;;;;;;;;;5082862;28;20028;-61
2022/05/20 11:11:13;;;;;;;30.10;19.77;;;;;;;;;;5079411;27;20030;-63
2022/05/20 11:13:45;;;;;;;30.15;20.48;;;;;;;;;;5089945;28;20028;-61
2022/05/20 11:16:30;;;;;;;25.25;20.02;;;;;;;;;;5081100;28;20463;-63
2022/05/20 11:18:59;;;;;;;31.42;21.55;;;;;;;;;;5089774;28;20367;-62
2022/05/20 11:21:33;;;;;;;25.55;18.67;;;;;;;;;;5103362;28;20475;-62
2022/05/20 11:24:08;;;;;;;25.77;18.42;;;;;;;;;;5095937;28;20116;-61
2022/05/20 11:26:51;;;;;;;25.45;18.05;;;;;;;;;;5088155;28;20118;-63
2022/05/20 11:29:32;;;;;;;25.92;19.35;;;;;;;;;;5083790;28;20027;-62
2022/05/20 11:32:02;;;;;;;25.55;17.20;;;;;;;;;;5087435;28;20024;-63
2022/05/20 11:34:47;;;;;;;24.58;17.30;;;;;;;;;;5093133;28;20024;-61
2022/05/20 11:37:30;;;;;;;22.75;17.50;;;;;;;;;;5076385;28;20425;-62
2022/05/20 11:39:56;;;;;;;24.05;17.58;;;;;;;;;;5081393;28;20529;-63
2022/05/20 11:42:34;;;;;;;19.95;15.15;;;;;;;;;;5081176;28;20032;-62
2022/05/20 11:45:15;;;;;;;21.70;14.75;;;;;;;;;;5080463;28;20479;-63
2022/05/20 11:48:00;;;;;;;21.25;15.90;;;;;;;;;;5080673;28;20463;-62
2022/05/20 11:50:47;;;;;;;18.88;14.88;;;;;;;;;;5077972;28;20119;-62
2022/05/20 11:53:23;;;;;;;19.85;15.23;;;;;;;;;;5093057;28;20026;-61
2022/05/20 11:56:08;;;;;;;22.55;15.98;;;;;;;;;;5081087;28;20036;-62
2022/05/20 11:59:01;;;;;;;18.48;14.48;;;;;;;;;;5085446;28;20284;-63
2022/05/20 12:01:27;;;;;;;15.85;12.68;;;;;;;;;;5084143;28;20126;-63
2022/05/20 12:04:09;;;;;;;15.75;11.45;;;;;;;;;;5076716;28;20160;-63
2022/05/20 12:06:38;;;;;;;14.40;10.73;;;;;;;;;;5090466;28;20111;-61
2022/05/20 12:09:05;;;;;;;13.20;10.63;;;;;;;;;;5081525;28;20339;-61
2022/05/20 12:11:37;;;;;;;15.15;11.02;;;;;;;;;;5078388;27;20103;-62
2022/05/20 12:14:05;;;;;;;15.20;10.18;;;;;;;;;;5073826;28;20078;-62
2022/05/20 12:16:31;;;;;;;15.13;10.32;;;;;;;;;;5096140;28;20511;-64
2022/05/20 12:24:31;;;;;;;10.57;8.95;;;;;;;;;;5091593;28;20448;-63
2022/05/20 12:26:58;;;;;;;12.63;9.30;;;;;;;;;;5096991;28;20448;-62
2022/05/20 12:29:37;;;;;;;11.98;9.60;;;;;;;;;;5084161;28;20537;-62
2022/05/20 12:32:21;;;;;;;12.52;9.48;;;;;;;;;;5089029;28;20092;-62
2022/05/20 12:35:05;;;;;;;12.40;9.57;;;;;;;;;;5088466;28;20161;-64
2022/05/20 12:37:40;;;;;;;12.60;10.30;;;;;;;;;;5076748;28;20035;-64
2022/05/20 12:40:15;;;;;;;11.13;9.95;;;;;;;;;;5080034;28;20031;-62
2022/05/20 12:42:45;;;;;;;14.48;9.68;;;;;;;;;;5081465;28;20031;-62
2022/05/20 12:45:11;;;;;;;14.90;10.70;;;;;;;;;;5086114;28;20043;-63
2022/05/20 12:47:38;;;;;;;14.45;11.32;;;;;;;;;;5080953;28;20036;-62
2022/05/20 12:50:07;;;;;;;16.17;11.82;;;;;;;;;;5082791;28;20039;-62
2022/05/20 12:52:34;;;;;;;16.10;12.18;;;;;;;;;;5090803;28;20027;-61
2022/05/20 12:55:15;;;;;;;14.52;12.98;;;;;;;;;;5096409;28;20024;-61
2022/05/20 12:57:55;;;;;;;16.30;12.23;;;;;;;;;;5089739;28;20528;-62
2022/05/20 13:00:26;;;;;;;14.85;12.52;;;;;;;;;;5081067;28;20480;-62
2022/05/20 13:02:54;;;;;;;14.73;12.40;;;;;;;;;;5096532;28;20449;-62
2022/05/20 13:05:29;;;;;;;19.63;13.38;;;;;;;;;;5092427;28;20451;-61
2022/05/20 13:07:56;;;;;;;16.10;14.20;;;;;;;;;;5094238;28;20488;-62
2022/05/20 13:10:24;;;;;;;20.60;14.52;;;;;;;;;;5087702;28;20036;-63
2022/05/20 13:12:52;;;;;;;23.95;15.98;;;;;;;;;;5075379;28;20035;-62
2022/05/20 13:15:19;;;;;;;25.50;15.75;;;;;;;;;;5090965;28;20091;-62
2022/05/20 13:17:51;;;;;;;19.38;12.63;;;;;;;;;;5090242;28;20024;-63
2022/05/20 13:20:17;;;;;;;36.20;25.90;;;;;;;;;;5091573;28;20027;-63
2022/05/20 13:22:51;;;;;;;17.05;14.82;;;;;;;;;;5094583;28;20031;-63
2022/05/20 13:25:17;;;;;;;19.02;16.13;;;;;;;;;;5096229;28;20467;-62
2022/05/20 13:27:47;;;;;;;16.40;14.65;;;;;;;;;;5087157;28;20042;-61
2022/05/20 13:30:21;;;;;;;16.70;12.32;;;;;;;;;;5083474;28;20111;-61
2022/05/20 13:32:47;;;;;;;15.30;11.20;;;;;;;;;;5088341;28;20501;-61
2022/05/20 13:35:14;;;;;;;12.07;10.23;;;;;;;;;;5078752;28;20028;-61
2022/05/20 13:37:49;;;;;;;15.00;9.23;;;;;;;;;;5081426;28;20037;-62
2022/05/20 13:40:23;;;;;;;14.52;9.50;;;;;;;;;;5080838;28;20051;-62
2022/05/20 13:42:52;;;;;;;10.00;8.82;;;;;;;;;;5089398;28;20061;-62
2022/05/20 13:45:19;;;;;;;10.38;7.78;;;;;;;;;;5085085;28;20028;-63
2022/05/20 13:50:31;;;;;;;10.07;9.00;;;;;;;;;;5087831;28;20572;-62
2022/05/20 13:52:58;;;;;;;8.35;7.28;;;;;;;;;;5092113;28;20038;-62
2022/05/20 13:55:31;;;;;;;8.57;7.65;;;;;;;;;;5086436;28;20034;-62
2022/05/20 13:57:57;;;;;;;9.50;7.90;;;;;;;;;;5094154;28;20103;-62
2022/05/20 14:00:29;;;;;;;10.38;8.07;;;;;;;;;;5091538;28;20357;-63
2022/05/20 14:02:59;;;;;;;12.05;8.60;;;;;;;;;;5086007;28;20071;-62
2022/05/20 14:05:30;;;;;;;9.95;7.88;;;;;;;;;;5093041;28;20514;-62
2022/05/20 14:08:01;;;;;;;10.80;7.70;;;;;;;;;;5089029;28;20529;-63
2022/05/20 14:10:31;;;;;;;9.77;7.63;;;;;;;;;;5088240;28;20080;-62
2022/05/20 14:12:59;;;;;;;9.48;7.22;;;;;;;;;;5082123;28;20154;-63
2022/05/20 14:15:31;;;;;;;10.20;8.38;;;;;;;;;;5078399;28;20407;-62
2022/05/20 14:17:59;;;;;;;11.48;9.10;;;;;;;;;;5099362;28;20491;-62
2022/05/20 14:20:25;;;;;;;10.20;9.10;;;;;;;;;;5097005;28;20340;-63
2022/05/20 14:22:51;;;;;;;14.27;9.35;;;;;;;;;;5095830;28;20560;-62
2022/05/20 14:25:25;;;;;;;12.88;8.63;;;;;;;;;;5091232;28;20029;-62
2022/05/20 14:27:52;;;;;;;7.50;6.38;;;;;;;;;;5090286;28;20490;-61
2022/05/20 14:30:18;;;;;;;6.70;5.28;;;;;;;;;;5090537;28;20032;-62
2022/05/20 14:32:44;;;;;;;6.97;5.13;;;;;;;;;;5094687;28;20027;-62
2022/05/20 14:35:10;;;;;;;7.22;5.40;;;;;;;;;;5084642;28;20026;-62
2022/05/20 14:37:36;;;;;;;7.28;5.35;;;;;;;;;;5092197;27;20154;-62
2022/05/20 14:40:11;;;;;;;7.57;5.50;;;;;;;;;;5093339;28;20056;-62
2022/05/20 14:42:40;;;;;;;5.43;4.70;;;;;;;;;;5094286;28;20032;-61
2022/05/20 14:45:19;;;;;;;8.15;5.13;;;;;;;;;;5097520;28;20048;-61
2022/05/20 14:47:52;;;;;;;6.78;4.85;;;;;;;;;;5088709;28;20074;-61
2022/05/20 14:50:20;;;;;;;6.97;4.20;;;;;;;;;;5088615;27;20028;-61
2022/05/20 14:52:53;;;;;;;4.88;3.50;;;;;;;;;;5081753;28;20380;-61
2022/05/20 14:55:31;;;;;;;5.57;3.10;;;;;;;;;;5088299;28;20035;-61
2022/05/20 14:58:00;;;;;;;8.48;3.33;;;;;;;;;;5091436;28;20357;-61
2022/05/20 15:00:29;;;;;;;4.40;2.97;;;;;;;;;;5083549;28;20028;-62
2022/05/20 15:02:55;;;;;;;5.07;3.03;;;;;;;;;;5085697;28;20112;-62
2022/05/20 15:05:22;;;;;;;7.50;3.10;;;;;;;;;;5095530;28;20024;-61
2022/05/20 15:07:52;;;;;;;6.10;3.20;;;;;;;;;;5074079;28;20414;-62
2022/05/20 15:10:19;;;;;;;4.75;2.70;;;;;;;;;;5070767;28;20028;-62
2022/05/20 15:12:46;;;;;;;7.00;2.80;;;;;;;;;;5090472;28;20113;-62
2022/05/20 15:15:12;;;;;;;5.30;3.20;;;;;;;;;;5085362;28;20092;-62